Time;durP1;ratioP1;P1;durP2;ratioP2;P2;SDS_P1;SDS_P2;PMS_P1;PMS_P2;Temp;Humidity;BMP_temperature;BMP_pressure;BME280_temperature;BME280_humidity;BME280_pressure;Samples;Min_cycle;Max_cycle;Signal;HPM_P1;HPM_P2
2024/04/18 00:04:32;;;;;;;7.18;2.22;;;;;;;;;;10826162;26;20008;-66
2024/04/18 00:09:26;;;;;;;13.63;2.55;;;;;;;;;;10808414;26;20012;-66
2024/04/18 00:14:21;;;;;;;5.78;2.67;;;;;;;;;;10800435;26;20356;-66
2024/04/18 00:19:15;;;;;;;3.72;3.13;;;;;;;;;;10786195;26;20019;-66
2024/04/18 00:24:22;;;;;;;4.38;2.72;;;;;;;;;;10785966;26;20015;-66
2024/04/18 00:29:16;;;;;;;3.58;2.67;;;;;;;;;;10768852;26;20436;-66
2024/04/18 00:34:10;;;;;;;3.90;2.50;;;;;;;;;;10767525;26;20109;-65
2024/04/18 00:39:10;;;;;;;6.28;3.15;;;;;;;;;;10759866;26;20020;-65
2024/04/18 00:44:23;;;;;;;4.55;2.85;;;;;;;;;;10769787;26;20379;-66
2024/04/18 00:49:36;;;;;;;6.93;4.00;;;;;;;;;;10769221;26;20413;-66
2024/04/18 00:54:30;;;;;;;7.97;4.07;;;;;;;;;;10766175;26;20444;-66
2024/04/18 00:59:25;;;;;;;10.05;4.40;;;;;;;;;;10768700;26;20424;-66
2024/04/18 01:04:39;;;;;;;7.18;3.65;;;;;;;;;;10734937;26;20008;-66
2024/04/18 01:09:37;;;;;;;5.97;4.93;;;;;;;;;;10761478;26;20004;-65
2024/04/18 01:14:34;;;;;;;6.43;3.63;;;;;;;;;;10777447;26;20032;-67
2024/04/18 01:19:29;;;;;;;7.50;3.13;;;;;;;;;;10754225;26;20005;-65
2024/04/18 01:24:23;;;;;;;5.97;3.78;;;;;;;;;;10752081;26;20015;-65
2024/04/18 01:29:18;;;;;;;9.15;3.78;;;;;;;;;;10765253;26;20348;-66
2024/04/18 01:34:30;;;;;;;7.85;3.65;;;;;;;;;;10762460;26;20082;-66
2024/04/18 01:39:40;;;;;;;7.93;3.50;;;;;;;;;;10768345;26;20085;-65
2024/04/18 01:44:35;;;;;;;6.95;4.82;;;;;;;;;;10767416;26;20004;-65
2024/04/18 01:49:49;;;;;;;8.18;4.85;;;;;;;;;;10756275;26;20019;-64
2024/04/18 01:54:43;;;;;;;8.43;4.20;;;;;;;;;;10765453;26;20428;-67
2024/04/18 01:59:38;;;;;;;6.63;4.20;;;;;;;;;;10764409;26;20059;-64
2024/04/18 02:04:32;;;;;;;7.97;4.22;;;;;;;;;;10752746;26;20032;-64
2024/04/18 02:09:25;;;;;;;5.65;3.85;;;;;;;;;;10763935;26;20006;-64
2024/04/18 02:14:19;;;;;;;6.00;4.13;;;;;;;;;;10780437;26;20011;-67
2024/04/18 02:19:33;;;;;;;6.00;3.70;;;;;;;;;;10757133;26;20031;-67
2024/04/18 02:25:11;;;;;;;7.35;4.07;;;;;;;;;;10758271;26;20501;-67
2024/04/18 02:30:25;;;;;;;5.70;4.35;;;;;;;;;;10761826;26;20074;-67
2024/04/18 02:35:55;;;;;;;7.90;4.88;;;;;;;;;;10757398;26;20015;-66
2024/04/18 02:41:24;;;;;;;4.80;3.40;;;;;;;;;;10761517;26;20014;-67
2024/04/18 02:46:38;;;;;;;7.30;4.00;;;;;;;;;;10749973;26;20340;-66
2024/04/18 02:51:58;;;;;;;7.60;4.35;;;;;;;;;;10763042;26;20011;-66
2024/04/18 02:57:29;;;;;;;7.55;4.75;;;;;;;;;;10762952;26;20376;-66
2024/04/18 03:02:43;;;;;;;6.72;3.95;;;;;;;;;;10766227;26;20011;-66
2024/04/18 03:08:00;;;;;;;6.35;4.80;;;;;;;;;;10761618;26;20522;-66
2024/04/18 03:13:23;;;;;;;8.27;4.88;;;;;;;;;;10709918;26;20078;-67
2024/04/18 03:18:37;;;;;;;7.40;4.65;;;;;;;;;;10762226;26;20000;-67
2024/04/18 03:23:40;;;;;;;6.18;3.65;;;;;;;;;;10762085;26;20040;-66
2024/04/18 03:28:34;;;;;;;8.10;3.90;;;;;;;;;;10762412;26;20008;-66
2024/04/18 03:33:29;;;;;;;6.55;4.20;;;;;;;;;;10763569;26;20004;-66
2024/04/18 03:38:25;;;;;;;5.75;4.65;;;;;;;;;;10759793;26;20055;-66
2024/04/18 03:43:22;;;;;;;4.33;3.90;;;;;;;;;;10763520;26;20409;-66
2024/04/18 03:48:16;;;;;;;4.57;3.33;;;;;;;;;;10767695;26;20004;-66
2024/04/18 03:53:10;;;;;;;6.82;3.78;;;;;;;;;;10769231;26;20004;-66
2024/04/18 03:58:04;;;;;;;3.88;3.45;;;;;;;;;;10768196;26;20070;-66
2024/04/18 04:03:13;;;;;;;;;;;;;;;;;;10764669;26;20005;-63
2024/04/18 04:08:09;;;;;;;8.73;4.07;;;;;;;;;;10769325;26;20257;-66
2024/04/18 04:13:03;;;;;;;3.90;3.50;;;;;;;;;;10771881;26;20443;-66
2024/04/18 04:18:07;;;;;;;3.72;3.42;;;;;;;;;;10768341;26;20004;-66
2024/04/18 04:23:08;;;;;;;4.85;3.80;;;;;;;;;;10768011;26;20023;-66
2024/04/18 04:28:21;;;;;;;7.82;4.85;;;;;;;;;;10766844;26;20023;-66
2024/04/18 04:33:15;;;;;;;4.45;4.05;;;;;;;;;;10770486;26;20018;-66
2024/04/18 04:38:09;;;;;;;6.28;4.72;;;;;;;;;;10767208;26;20451;-66
2024/04/18 04:43:03;;;;;;;6.90;4.45;;;;;;;;;;10769075;26;20008;-66
2024/04/18 04:47:58;;;;;;;7.28;3.83;;;;;;;;;;10768349;26;20452;-66
2024/04/18 04:52:52;;;;;;;6.80;3.72;;;;;;;;;;10768175;26;20043;-66
2024/04/18 04:57:46;;;;;;;8.00;5.13;;;;;;;;;;10762952;26;20016;-67
2024/04/18 05:02:44;;;;;;;5.97;4.65;;;;;;;;;;10767081;26;20086;-66
2024/04/18 05:07:44;;;;;;;4.57;3.80;;;;;;;;;;10768177;26;20476;-64
2024/04/18 05:12:56;;;;;;;4.57;3.78;;;;;;;;;;10798631;26;20034;-67
2024/04/18 05:17:59;;;;;;;6.75;3.72;;;;;;;;;;10804690;26;20099;-66
2024/04/18 05:22:53;;;;;;;6.22;4.00;;;;;;;;;;10777745;26;20088;-66
2024/04/18 05:27:55;;;;;;;5.45;3.22;;;;;;;;;;10819171;26;20475;-67
2024/04/18 05:32:59;;;;;;;6.22;2.97;;;;;;;;;;10819873;26;20015;-67
2024/04/18 05:37:53;;;;;;;4.82;2.58;;;;;;;;;;10798253;26;20004;-66
2024/04/18 05:42:48;;;;;;;13.45;5.60;;;;;;;;;;10802461;26;20076;-65
2024/04/18 05:47:41;;;;;;;12.38;6.43;;;;;;;;;;10748239;26;20081;-65
2024/04/18 05:52:36;;;;;;;13.55;6.80;;;;;;;;;;10773350;26;20336;-65
2024/04/18 05:57:45;;;;;;;;;;;;;;;;;;10787664;26;20446;-64
2024/04/18 06:02:57;;;;;;;20.77;8.65;;;;;;;;;;10784193;26;20407;-64
2024/04/18 06:07:52;;;;;;;10.98;6.72;;;;;;;;;;10787351;26;20023;-65
2024/04/18 06:12:45;;;;;;;14.07;6.13;;;;;;;;;;10789143;26;20000;-64
2024/04/18 06:17:39;;;;;;;13.50;6.85;;;;;;;;;;10808023;26;20423;-64
2024/04/18 06:22:34;;;;;;;8.23;6.30;;;;;;;;;;10772540;26;20453;-64
2024/04/18 06:27:47;;;;;;;8.88;6.80;;;;;;;;;;10769649;26;20019;-65
2024/04/18 06:32:42;;;;;;;14.25;7.78;;;;;;;;;;10774731;26;20004;-64
2024/04/18 06:37:36;;;;;;;11.73;6.70;;;;;;;;;;10771595;26;20016;-64
2024/04/18 06:42:32;;;;;;;11.75;7.63;;;;;;;;;;10773721;26;20448;-64
2024/04/18 06:47:26;;;;;;;7.80;6.63;;;;;;;;;;10758705;26;20000;-66
2024/04/18 06:52:35;;;;;;;8.32;6.10;;;;;;;;;;10755811;26;20005;-66
2024/04/18 06:57:29;;;;;;;10.93;7.00;;;;;;;;;;10786439;26;20004;-66
2024/04/18 07:02:24;;;;;;;9.80;6.22;;;;;;;;;;10761794;26;20004;-64
2024/04/18 07:07:37;;;;;;;14.73;7.07;;;;;;;;;;10638148;26;20019;-64
2024/04/18 07:12:51;;;;;;;15.07;4.50;;;;;;;;;;10778981;26;20003;-66
2024/04/18 07:17:46;;;;;;;7.28;5.32;;;;;;;;;;10764351;26;20014;-64
2024/04/18 07:22:42;;;;;;;8.68;5.18;;;;;;;;;;10766503;26;20051;-65
2024/04/18 07:27:53;;;;;;;7.22;5.55;;;;;;;;;;10765887;26;20012;-65
2024/04/18 07:32:47;;;;;;;10.77;5.90;;;;;;;;;;10769786;26;20012;-65
2024/04/18 07:38:02;;;;;;;9.80;5.65;;;;;;;;;;10770830;26;20004;-64
2024/04/18 07:42:57;;;;;;;10.88;5.03;;;;;;;;;;10766252;26;20004;-66
2024/04/18 07:47:51;;;;;;;14.30;6.10;;;;;;;;;;10769034;26;20437;-66
2024/04/18 07:52:45;;;;;;;7.70;5.80;;;;;;;;;;10768563;26;20004;-66
2024/04/18 07:57:53;;;;;;;6.60;5.40;;;;;;;;;;10768847;26;20488;-66
2024/04/18 08:02:49;;;;;;;9.07;5.95;;;;;;;;;;10745424;26;20004;-65
2024/04/18 08:07:46;;;;;;;9.55;5.88;;;;;;;;;;10761405;26;20076;-66
2024/04/18 08:12:46;;;;;;;12.55;6.32;;;;;;;;;;10768110;26;20004;-66
2024/04/18 08:17:45;;;;;;;14.07;5.70;;;;;;;;;;10766533;26;20000;-66
2024/04/18 08:22:40;;;;;;;7.88;5.55;;;;;;;;;;10768774;26;20012;-66
2024/04/18 08:27:35;;;;;;;9.00;6.65;;;;;;;;;;10757082;26;20015;-66
2024/04/18 08:32:29;;;;;;;15.60;7.10;;;;;;;;;;10773939;26;20076;-66
2024/04/18 08:37:24;;;;;;;6.85;5.43;;;;;;;;;;10774943;26;20619;-66
2024/04/18 08:42:24;;;;;;;4.38;3.70;;;;;;;;;;10766843;26;20016;-66
2024/04/18 08:47:33;;;;;;;25.70;3.10;;;;;;;;;;10762498;26;20005;-67
2024/04/18 08:52:33;;;;;;;5.47;2.08;;;;;;;;;;10769002;26;20748;-66
2024/04/18 08:57:30;;;;;;;3.25;2.35;;;;;;;;;;10765988;26;20004;-65
2024/04/18 09:02:26;;;;;;;4.20;1.92;;;;;;;;;;10733996;26;20000;-66
2024/04/18 09:07:20;;;;;;;8.15;2.25;;;;;;;;;;10766607;26;20016;-66
2024/04/18 09:12:14;;;;;;;5.75;1.95;;;;;;;;;;10794968;26;20473;-66
2024/04/18 09:17:13;;;;;;;2.85;1.48;;;;;;;;;;10764694;26;20317;-66
2024/04/18 09:22:07;;;;;;;;;;;;;;;;;;10765962;26;20019;-63
2024/04/18 09:27:00;;;;;;;3.08;1.30;;;;;;;;;;10762717;26;19948;-65
2024/04/18 09:31:57;;;;;;;5.45;2.03;;;;;;;;;;10762290;26;20040;-65
2024/04/18 09:36:50;;;;;;;10.13;2.17;;;;;;;;;;10765293;26;20014;-66
2024/04/18 09:41:49;;;;;;;4.47;2.10;;;;;;;;;;10762115;26;20342;-65
2024/04/18 09:46:42;;;;;;;;;;;;;;;;;;10749537;26;20085;-65
2024/04/18 09:51:37;;;;;;;2.40;1.98;;;;;;;;;;10705716;26;19925;-64
2024/04/18 09:56:33;;;;;;;3.53;1.48;;;;;;;;;;10777444;26;20070;-65
2024/04/18 10:01:29;;;;;;;4.93;1.42;;;;;;;;;;10735060;26;20321;-65
2024/04/18 10:06:28;;;;;;;5.60;1.50;;;;;;;;;;10760141;26;20008;-65
2024/04/18 10:11:25;;;;;;;1.55;1.45;;;;;;;;;;10758463;26;20085;-65
2024/04/18 10:16:22;;;;;;;5.88;1.98;;;;;;;;;;10766538;26;20004;-64
2024/04/18 10:21:21;;;;;;;1.20;1.10;;;;;;;;;;10761992;26;20004;-65
2024/04/18 10:26:33;;;;;;;3.55;1.10;;;;;;;;;;10758983;26;20004;-65
2024/04/18 10:31:28;;;;;;;2.47;1.00;;;;;;;;;;10759063;26;20020;-64
2024/04/18 10:36:24;;;;;;;1.02;1.00;;;;;;;;;;10762643;26;20010;-64
2024/04/18 10:41:22;;;;;;;1.40;1.10;;;;;;;;;;10774258;26;20383;-64
2024/04/18 10:46:18;;;;;;;1.02;1.00;;;;;;;;;;10760480;26;20032;-65
2024/04/18 10:51:12;;;;;;;1.95;1.40;;;;;;;;;;10750801;26;20004;-64
2024/04/18 10:56:07;;;;;;;1.48;1.00;;;;;;;;;;10764122;26;20000;-65
2024/04/18 11:01:04;;;;;;;1.17;1.13;;;;;;;;;;10761472;26;20010;-65
2024/04/18 11:06:00;;;;;;;1.10;1.00;;;;;;;;;;10765853;26;20004;-64
2024/04/18 11:10:54;;;;;;;1.65;1.15;;;;;;;;;;10763218;26;20023;-65
2024/04/18 11:15:48;;;;;;;1.60;1.00;;;;;;;;;;10764280;26;20557;-65
2024/04/18 11:20:44;;;;;;;0.77;0.77;;;;;;;;;;10761156;26;20015;-67
2024/04/18 11:25:38;;;;;;;1.27;1.00;;;;;;;;;;10760014;26;20015;-65
2024/04/18 11:30:31;;;;;;;2.75;0.95;;;;;;;;;;10760127;26;20344;-65
2024/04/18 11:35:26;;;;;;;1.13;0.90;;;;;;;;;;10767534;26;20019;-64
2024/04/18 11:40:21;;;;;;;1.10;1.00;;;;;;;;;;10759571;26;20335;-65
2024/04/18 11:45:16;;;;;;;1.20;1.08;;;;;;;;;;10762767;26;20015;-65
2024/04/18 11:50:10;;;;;;;2.50;0.90;;;;;;;;;;10761819;26;20012;-65
2024/04/18 11:55:05;;;;;;;0.75;0.75;;;;;;;;;;10762500;26;20015;-65
2024/04/18 12:00:03;;;;;;;1.80;1.00;;;;;;;;;;10761016;26;20085;-64
2024/04/18 12:05:17;;;;;;;2.17;1.08;;;;;;;;;;10763081;26;20000;-64
2024/04/18 12:10:14;;;;;;;1.63;0.88;;;;;;;;;;10764703;26;20074;-64
2024/04/18 12:15:09;;;;;;;0.80;0.80;;;;;;;;;;10738628;26;20000;-64
2024/04/18 12:20:05;;;;;;;0.88;0.88;;;;;;;;;;10770806;26;20078;-64
2024/04/18 12:25:01;;;;;;;0.95;0.90;;;;;;;;;;10776426;26;20032;-64
2024/04/18 12:29:59;;;;;;;1.10;0.82;;;;;;;;;;10767841;26;20054;-65
2024/04/18 12:34:53;;;;;;;1.08;0.80;;;;;;;;;;10760553;26;20019;-65
2024/04/18 12:39:48;;;;;;;1.15;0.80;;;;;;;;;;10764122;26;20004;-65
2024/04/18 12:44:51;;;;;;;0.80;0.80;;;;;;;;;;10770506;26;20023;-64
2024/04/18 12:49:46;;;;;;;1.23;0.90;;;;;;;;;;10777745;26;20047;-65
2024/04/18 12:54:40;;;;;;;12.68;1.40;;;;;;;;;;10761984;26;20047;-65
2024/04/18 12:59:47;;;;;;;1.75;1.02;;;;;;;;;;10765602;26;20441;-65
2024/04/18 13:04:50;;;;;;;0.82;0.82;;;;;;;;;;10764245;26;20018;-65
2024/04/18 13:09:46;;;;;;;0.88;0.88;;;;;;;;;;10763705;26;20004;-65
2024/04/18 13:14:40;;;;;;;1.08;1.00;;;;;;;;;;10781188;26;20051;-65
2024/04/18 13:19:34;;;;;;;3.53;1.30;;;;;;;;;;10765219;26;20085;-65
2024/04/18 13:24:34;;;;;;;2.38;1.55;;;;;;;;;;10763122;26;20016;-65
2024/04/18 13:29:48;;;;;;;2.70;1.13;;;;;;;;;;10764545;26;20008;-64
2024/04/18 13:34:57;;;;;;;1.00;0.90;;;;;;;;;;10763289;26;20040;-65
2024/04/18 13:39:54;;;;;;;2.53;1.42;;;;;;;;;;10763455;26;20023;-65
2024/04/18 13:44:53;;;;;;;5.38;1.35;;;;;;;;;;10763961;26;20019;-65
2024/04/18 13:49:46;;;;;;;1.70;1.10;;;;;;;;;;10765160;26;20015;-65
2024/04/18 13:54:41;;;;;;;4.30;1.40;;;;;;;;;;10765957;26;20023;-65
2024/04/18 13:59:56;;;;;;;2.05;1.15;;;;;;;;;;10765668;26;20025;-64
2024/04/18 14:05:08;;;;;;;1.98;1.40;;;;;;;;;;10763379;26;20385;-64
2024/04/18 14:10:21;;;;;;;1.77;1.10;;;;;;;;;;10763229;26;20016;-65
2024/04/18 14:15:37;;;;;;;1.30;1.20;;;;;;;;;;10763176;26;20015;-64
2024/04/18 14:20:52;;;;;;;1.75;1.40;;;;;;;;;;10764378;26;20069;-66
2024/04/18 14:25:47;;;;;;;1.60;1.50;;;;;;;;;;10739383;26;20011;-64
2024/04/18 14:30:41;;;;;;;1.65;1.55;;;;;;;;;;10765472;26;20004;-63
2024/04/18 14:35:35;;;;;;;1.55;1.40;;;;;;;;;;10764631;26;20016;-65
2024/04/18 14:40:29;;;;;;;1.80;1.70;;;;;;;;;;10764708;26;20016;-66
2024/04/18 14:45:24;;;;;;;2.45;1.85;;;;;;;;;;10755474;26;20008;-65
2024/04/18 14:50:18;;;;;;;4.10;2.80;;;;;;;;;;10760627;26;20019;-66
2024/04/18 14:55:13;;;;;;;4.03;3.72;;;;;;;;;;10761028;26;20003;-65
2024/04/18 15:00:10;;;;;;;5.43;2.10;;;;;;;;;;10764508;26;20447;-65
2024/04/18 15:05:06;;;;;;;2.63;2.42;;;;;;;;;;10763754;26;20056;-66
2024/04/18 15:10:22;;;;;;;2.78;2.58;;;;;;;;;;10776987;26;20018;-66
2024/04/18 15:15:22;;;;;;;2.55;2.30;;;;;;;;;;10766914;26;20348;-66
2024/04/18 15:20:16;;;;;;;2.70;2.45;;;;;;;;;;10760060;26;20016;-66
2024/04/18 15:25:29;;;;;;;3.47;2.20;;;;;;;;;;10750883;26;20005;-66
2024/04/18 15:30:24;;;;;;;2.85;2.63;;;;;;;;;;10761168;26;20027;-66
2024/04/18 15:35:18;;;;;;;4.20;3.00;;;;;;;;;;10755356;26;20053;-66
2024/04/18 15:40:30;;;;;;;3.22;2.50;;;;;;;;;;10767889;26;20515;-66
2024/04/18 15:45:31;;;;;;;2.75;2.55;;;;;;;;;;10774158;26;20012;-66
2024/04/18 15:50:44;;;;;;;4.07;3.50;;;;;;;;;;10767195;26;20455;-66
2024/04/18 15:55:53;;;;;;;2.30;2.10;;;;;;;;;;10771198;26;20086;-66
2024/04/18 16:00:53;;;;;;;3.38;2.60;;;;;;;;;;10751609;26;20014;-66
2024/04/18 16:05:57;;;;;;;3.13;2.83;;;;;;;;;;10763470;26;20020;-66
2024/04/18 16:11:07;;;;;;;1.90;1.80;;;;;;;;;;10766996;26;20031;-65
2024/04/18 16:16:19;;;;;;;5.25;2.17;;;;;;;;;;10760833;26;20007;-66
2024/04/18 16:21:13;;;;;;;1.85;1.55;;;;;;;;;;10761099;26;20000;-66
2024/04/18 16:26:06;;;;;;;1.73;1.63;;;;;;;;;;10762548;26;20028;-66
2024/04/18 16:31:01;;;;;;;1.73;1.60;;;;;;;;;;10759477;26;20000;-65
2024/04/18 16:35:55;;;;;;;2.63;2.00;;;;;;;;;;10760324;26;20107;-64
2024/04/18 16:40:52;;;;;;;4.07;3.53;;;;;;;;;;10770733;26;20018;-64
2024/04/18 16:45:56;;;;;;;8.77;5.63;;;;;;;;;;10760983;26;20453;-65
2024/04/18 16:50:50;;;;;;;13.80;10.02;;;;;;;;;;10764029;26;20015;-66
2024/04/18 16:55:44;;;;;;;3.10;2.80;;;;;;;;;;10768147;26;20456;-65
2024/04/18 17:00:41;;;;;;;8.15;4.60;;;;;;;;;;10763618;26;20008;-67
2024/04/18 17:05:37;;;;;;;5.15;4.68;;;;;;;;;;10763029;26;20001;-67
2024/04/18 17:10:33;;;;;;;7.53;3.92;;;;;;;;;;10765505;26;20371;-68
2024/04/18 17:15:46;;;;;;;4.63;4.22;;;;;;;;;;10755018;26;20022;-66
2024/04/18 17:20:42;;;;;;;6.10;4.65;;;;;;;;;;10774441;26;20083;-66
2024/04/18 17:25:37;;;;;;;6.70;6.10;;;;;;;;;;10761823;26;20008;-66
2024/04/18 17:30:30;;;;;;;7.93;7.13;;;;;;;;;;10760811;26;20082;-66
2024/04/18 17:35:25;;;;;;;13.90;12.55;;;;;;;;;;10761381;26;20015;-66
2024/04/18 17:40:35;;;;;;;8.70;7.18;;;;;;;;;;10771933;26;20003;-66
2024/04/18 17:45:30;;;;;;;6.82;5.70;;;;;;;;;;10777477;26;20004;-65
2024/04/18 17:50:39;;;;;;;6.87;6.17;;;;;;;;;;10762475;26;20111;-65
2024/04/18 17:55:34;;;;;;;6.10;5.05;;;;;;;;;;10760927;26;20015;-66
2024/04/18 18:00:28;;;;;;;13.15;9.98;;;;;;;;;;10757745;26;20000;-65
2024/04/18 18:05:23;;;;;;;10.23;8.63;;;;;;;;;;10759083;26;20487;-65
2024/04/18 18:10:17;;;;;;;11.25;7.35;;;;;;;;;;10763706;26;20004;-65
2024/04/18 18:15:31;;;;;;;7.32;6.63;;;;;;;;;;10766792;26;20024;-65
2024/04/18 18:20:25;;;;;;;7.07;6.38;;;;;;;;;;10757285;26;20015;-65
2024/04/18 18:25:19;;;;;;;6.18;4.15;;;;;;;;;;10766421;26;20030;-65
2024/04/18 18:30:15;;;;;;;10.32;8.50;;;;;;;;;;10751093;26;20008;-65
2024/04/18 18:35:09;;;;;;;8.07;7.38;;;;;;;;;;10789660;26;20566;-66
2024/04/18 18:40:02;;;;;;;7.43;6.57;;;;;;;;;;10768363;26;20426;-65
2024/04/18 18:44:57;;;;;;;6.90;6.30;;;;;;;;;;10807683;26;20026;-65
2024/04/18 18:49:50;;;;;;;8.27;7.43;;;;;;;;;;10787883;26;20019;-66
2024/04/18 18:54:45;;;;;;;8.07;6.75;;;;;;;;;;10788124;26;20016;-65
2024/04/18 18:59:42;;;;;;;7.95;7.18;;;;;;;;;;10790294;26;20080;-71
2024/04/18 19:04:36;;;;;;;6.30;5.70;;;;;;;;;;10789825;26;20515;-66
2024/04/18 19:09:33;;;;;;;5.80;5.20;;;;;;;;;;10788039;26;20411;-66
2024/04/18 19:14:28;;;;;;;5.68;5.18;;;;;;;;;;10792575;26;20008;-66
2024/04/18 19:19:32;;;;;;;9.90;5.53;;;;;;;;;;10770671;26;20012;-66
2024/04/18 19:24:27;;;;;;;5.75;5.25;;;;;;;;;;10781228;26;20078;-69
2024/04/18 19:29:21;;;;;;;5.70;5.20;;;;;;;;;;10785947;26;20004;-66
2024/04/18 19:34:32;;;;;;;5.90;5.40;;;;;;;;;;10778939;26;20099;-66
2024/04/18 19:39:26;;;;;;;8.13;5.35;;;;;;;;;;10781650;26;20005;-66
2024/04/18 19:44:23;;;;;;;10.93;6.15;;;;;;;;;;10804305;26;20315;-66
2024/04/18 19:49:17;;;;;;;7.07;6.45;;;;;;;;;;10798699;26;20460;-66
2024/04/18 19:54:20;;;;;;;7.32;6.63;;;;;;;;;;10775786;26;20004;-66
2024/04/18 19:59:14;;;;;;;6.53;5.93;;;;;;;;;;10798185;26;20502;-66
2024/04/18 20:04:08;;;;;;;6.55;5.95;;;;;;;;;;10790029;26;20361;-66
2024/04/18 20:09:02;;;;;;;5.68;5.18;;;;;;;;;;10834921;26;20015;-66
2024/04/18 20:13:56;;;;;;;4.40;4.00;;;;;;;;;;10834063;26;20356;-65
2024/04/18 20:18:50;;;;;;;4.45;4.10;;;;;;;;;;10833992;26;20004;-67
2024/04/18 20:23:45;;;;;;;5.05;4.07;;;;;;;;;;10804547;26;20015;-66
2024/04/18 20:28:40;;;;;;;4.53;4.13;;;;;;;;;;10765987;26;20012;-66
2024/04/18 20:33:38;;;;;;;3.85;3.55;;;;;;;;;;10768568;26;20020;-66
2024/04/18 20:38:32;;;;;;;3.58;3.25;;;;;;;;;;10750150;26;20004;-66
2024/04/18 20:43:27;;;;;;;5.32;3.42;;;;;;;;;;10770111;26;20015;-67
2024/04/18 20:48:22;;;;;;;4.43;4.03;;;;;;;;;;10793747;26;20004;-67
2024/04/18 20:53:15;;;;;;;3.80;3.50;;;;;;;;;;10806169;26;20005;-66
2024/04/18 20:58:09;;;;;;;7.18;3.90;;;;;;;;;;10802814;26;20004;-66
2024/04/18 21:03:03;;;;;;;8.02;4.97;;;;;;;;;;10795449;26;20081;-66
2024/04/18 21:07:57;;;;;;;4.43;4.10;;;;;;;;;;10760278;26;20084;-66
2024/04/18 21:12:51;;;;;;;4.90;4.50;;;;;;;;;;10809920;26;20036;-66
2024/04/18 21:17:45;;;;;;;5.45;4.95;;;;;;;;;;10793379;26;20014;-66
2024/04/18 21:22:40;;;;;;;4.43;4.07;;;;;;;;;;10769880;26;20004;-66
2024/04/18 21:27:36;;;;;;;5.20;4.20;;;;;;;;;;10767199;26;20399;-66
2024/04/18 21:32:33;;;;;;;5.15;4.18;;;;;;;;;;10763611;26;20073;-66
2024/04/18 21:37:28;;;;;;;4.18;3.88;;;;;;;;;;10768908;26;20081;-66
2024/04/18 21:42:22;;;;;;;4.13;3.80;;;;;;;;;;10764931;26;20023;-66
2024/04/18 21:47:15;;;;;;;4.75;4.32;;;;;;;;;;10766204;26;20019;-66
2024/04/18 21:52:10;;;;;;;4.25;3.95;;;;;;;;;;10765215;26;20041;-66
2024/04/18 21:57:05;;;;;;;4.90;4.50;;;;;;;;;;10766280;26;20014;-66
2024/04/18 22:02:00;;;;;;;8.43;4.60;;;;;;;;;;10759450;26;20004;-66
2024/04/18 22:06:54;;;;;;;5.80;5.22;;;;;;;;;;10774212;26;20012;-66
2024/04/18 22:11:49;;;;;;;4.65;4.30;;;;;;;;;;10776667;26;20003;-66
2024/04/18 22:16:43;;;;;;;5.40;4.70;;;;;;;;;;10762798;26;20015;-66
2024/04/18 22:21:38;;;;;;;5.40;4.90;;;;;;;;;;10764830;26;20076;-66
2024/04/18 22:26:33;;;;;;;5.20;4.70;;;;;;;;;;10762288;26;20082;-66
2024/04/18 22:31:26;;;;;;;5.90;5.30;;;;;;;;;;10767680;26;20738;-66
2024/04/18 22:36:21;;;;;;;6.15;5.65;;;;;;;;;;10763189;26;20000;-66
2024/04/18 22:41:20;;;;;;;5.40;4.90;;;;;;;;;;10759151;26;20019;-66
2024/04/18 22:46:14;;;;;;;5.10;4.65;;;;;;;;;;10762963;26;20015;-66
2024/04/18 22:51:09;;;;;;;5.13;4.55;;;;;;;;;;10761763;26;20024;-66
2024/04/18 22:56:02;;;;;;;5.70;4.18;;;;;;;;;;10762658;26;20027;-65
2024/04/18 23:00:55;;;;;;;8.00;4.75;;;;;;;;;;10762181;26;20436;-66
2024/04/18 23:05:49;;;;;;;4.40;4.00;;;;;;;;;;10761759;26;20016;-66
2024/04/18 23:11:04;;;;;;;5.15;3.65;;;;;;;;;;10760639;26;20004;-66
2024/04/18 23:15:58;;;;;;;10.07;4.10;;;;;;;;;;10774262;26;20004;-65
2024/04/18 23:20:54;;;;;;;4.35;3.50;;;;;;;;;;10769222;26;20004;-66
2024/04/18 23:25:57;;;;;;;4.15;3.85;;;;;;;;;;10765831;26;20408;-66
2024/04/18 23:30:52;;;;;;;4.97;4.00;;;;;;;;;;10763232;26;20440;-65
2024/04/18 23:35:47;;;;;;;6.82;3.72;;;;;;;;;;10760316;26;20004;-66
2024/04/18 23:40:41;;;;;;;4.63;3.75;;;;;;;;;;10772467;26;20109;-66
2024/04/18 23:45:35;;;;;;;5.25;3.80;;;;;;;;;;10800549;26;20078;-66
2024/04/18 23:50:29;;;;;;;4.18;3.78;;;;;;;;;;10792938;26;20092;-65
2024/04/18 23:55:24;;;;;;;4.55;4.15;;;;;;;;;;10792346;26;20015;-66
